createdAt,value
2022-11-15T00:01:27.268Z,6.78
2022-11-15T00:04:30.122Z,6.77
2022-11-15T00:07:54.769Z,6.77
2022-11-15T00:10:57.357Z,6.75
2022-11-15T00:14:03.411Z,6.77
2022-11-15T00:17:06.403Z,6.78
2022-11-15T00:20:09.881Z,6.82
2022-11-15T00:23:13.423Z,6.88
2022-11-15T00:26:16.979Z,6.94
2022-11-15T00:29:20.023Z,6.95
2022-11-15T00:32:22.972Z,6.95
2022-11-15T00:35:26.055Z,6.98
2022-11-15T00:38:37.081Z,7.05
2022-11-15T00:41:39.939Z,7.08
2022-11-15T00:44:42.810Z,7.07
2022-11-15T00:47:53.096Z,7.03
2022-11-15T00:50:55.981Z,7.02
2022-11-15T00:54:37.565Z,7.07
2022-11-15T00:57:40.514Z,7.09
2022-11-15T01:00:44.203Z,7.13
2022-11-15T01:03:47.245Z,7.19
2022-11-15T01:06:50.312Z,7.25
2022-11-15T01:10:21.616Z,7.29
2022-11-15T01:13:24.553Z,7.33
2022-11-15T01:16:27.624Z,7.31
2022-11-15T01:19:30.525Z,7.38
2022-11-15T01:22:33.636Z,7.44
2022-11-15T01:25:36.650Z,7.48
2022-11-15T01:28:41.853Z,7.53
2022-11-15T01:31:44.829Z,7.56
2022-11-15T01:34:47.763Z,7.61
2022-11-15T01:37:50.787Z,7.65
2022-11-15T01:40:53.691Z,7.69
2022-11-15T01:44:17.060Z,7.74
2022-11-15T01:47:26.154Z,7.76
2022-11-15T01:50:33.703Z,7.78
2022-11-15T01:53:39.620Z,7.81
2022-11-15T01:56:52.202Z,7.82
2022-11-15T01:59:55.563Z,7.83
2022-11-15T02:02:59.120Z,7.81
2022-11-15T02:06:04.864Z,7.76
2022-11-15T02:09:07.851Z,7.79
2022-11-15T02:12:13.601Z,7.80
2022-11-15T02:15:17.010Z,7.78
2022-11-15T02:18:35.134Z,7.74
2022-11-15T02:22:07.347Z,7.70
2022-11-15T02:25:25.193Z,7.71
2022-11-15T02:28:34.497Z,7.74
2022-11-15T02:32:05.328Z,7.72
2022-11-15T02:35:29.648Z,7.70
2022-11-15T02:38:47.277Z,7.68
2022-11-15T02:42:04.999Z,7.69
2022-11-15T02:45:14.353Z,7.70
2022-11-15T02:48:19.146Z,7.67
2022-11-15T02:51:22.861Z,7.62
2022-11-15T02:54:55.262Z,7.64
2022-11-15T02:58:20.140Z,7.60
2022-11-15T03:01:44.237Z,7.57
2022-11-15T03:04:57.178Z,7.53
2022-11-15T03:08:24.282Z,7.49
2022-11-15T03:11:28.912Z,7.49
2022-11-15T03:14:37.364Z,7.47
2022-11-15T03:17:52.823Z,7.43
2022-11-15T03:20:58.303Z,7.41
2022-11-15T03:24:06.664Z,7.42
2022-11-15T03:27:13.779Z,7.40
2022-11-15T03:30:18.138Z,7.35
2022-11-15T03:33:23.189Z,7.34
2022-11-15T03:36:27.579Z,7.32
2022-11-15T03:39:30.766Z,7.35
2022-11-15T03:42:46.245Z,7.36
2022-11-15T03:46:02.088Z,7.34
2022-11-15T03:49:17.422Z,7.39
2022-11-15T03:52:22.369Z,7.39
2022-11-15T03:55:25.483Z,7.39
2022-11-15T03:58:28.430Z,7.40
2022-11-15T04:01:31.471Z,7.45
2022-11-15T04:04:34.502Z,7.46
2022-11-15T04:07:39.255Z,7.45
2022-11-15T04:10:43.059Z,7.44
2022-11-15T04:13:46.006Z,7.46
2022-11-15T04:16:48.961Z,7.46
2022-11-15T04:20:13.594Z,7.47
2022-11-15T04:23:41.475Z,7.47
2022-11-15T04:26:44.419Z,7.45
2022-11-15T04:29:48.006Z,7.48
2022-11-15T04:32:50.810Z,7.52
2022-11-15T04:36:12.441Z,7.47
2022-11-15T04:39:15.357Z,7.46
2022-11-15T04:42:18.255Z,7.47
2022-11-15T04:45:21.419Z,7.55
2022-11-15T04:48:24.254Z,7.56
2022-11-15T04:51:27.779Z,7.54
2022-11-15T04:54:30.682Z,7.56
2022-11-15T04:57:33.552Z,7.55
2022-11-15T05:00:37.463Z,7.53
2022-11-15T05:04:04.038Z,7.55
2022-11-15T05:07:06.956Z,7.56
2022-11-15T05:10:10.558Z,7.59
2022-11-15T05:13:13.405Z,7.58
2022-11-15T05:16:16.239Z,7.55
2022-11-15T05:19:19.036Z,7.53
2022-11-15T05:22:23.739Z,7.55
2022-11-15T05:25:27.199Z,7.53
2022-11-15T05:28:30.023Z,7.52
2022-11-15T05:31:32.868Z,7.54
2022-11-15T05:34:36.213Z,7.54
2022-11-15T05:37:39.072Z,7.52
2022-11-15T05:40:42.081Z,7.48
2022-11-15T05:43:47.477Z,7.48
2022-11-15T05:46:54.620Z,7.49
2022-11-15T05:49:58.650Z,7.46
2022-11-15T05:53:05.259Z,7.46
2022-11-15T05:56:10.883Z,7.46
2022-11-15T05:59:14.324Z,7.50
2022-11-15T06:02:17.294Z,7.50
2022-11-15T06:05:20.194Z,7.50
2022-11-15T06:08:23.056Z,7.53
2022-11-15T06:11:29.441Z,7.53
2022-11-15T06:14:32.409Z,7.51
2022-11-15T06:17:35.257Z,7.45
2022-11-15T06:20:38.105Z,7.41
2022-11-15T06:23:40.937Z,7.43
2022-11-15T06:26:43.687Z,7.44
2022-11-15T06:29:46.505Z,7.41
2022-11-15T06:32:49.461Z,7.36
2022-11-15T06:35:52.385Z,7.36
2022-11-15T06:39:20.148Z,7.40
2022-11-15T06:42:23.878Z,7.43
2022-11-15T06:45:27.718Z,7.47
2022-11-15T06:48:31.437Z,7.46
2022-11-15T06:51:34.359Z,7.48
2022-11-15T06:54:37.192Z,7.47
2022-11-15T06:57:48.441Z,7.48
2022-11-15T07:00:51.396Z,7.55
2022-11-15T07:03:54.279Z,7.61
2022-11-15T07:06:57.182Z,7.65
2022-11-15T07:10:00.110Z,7.67
2022-11-15T07:13:03.059Z,7.67
2022-11-15T07:16:08.207Z,7.67
2022-11-15T07:19:11.224Z,7.64
2022-11-15T07:22:14.026Z,7.59
2022-11-15T07:25:17.451Z,7.59
2022-11-15T07:28:20.607Z,7.65
2022-11-15T07:31:23.687Z,7.68
2022-11-15T07:34:26.504Z,7.69
2022-11-15T07:37:29.354Z,7.68
2022-11-15T07:40:33.236Z,7.70
2022-11-15T07:43:36.628Z,7.74
2022-11-15T07:46:39.477Z,7.74
2022-11-15T07:49:42.292Z,7.83
2022-11-15T07:52:46.291Z,7.86
2022-11-15T07:55:49.100Z,7.91
2022-11-15T07:58:52.010Z,7.96
2022-11-15T08:01:54.913Z,8.02
2022-11-15T08:04:58.105Z,8.02
2022-11-15T08:08:00.959Z,8.03
2022-11-15T08:11:04.386Z,8.09
2022-11-15T08:14:07.242Z,8.14
2022-11-15T08:17:10.647Z,8.17
2022-11-15T08:20:13.437Z,8.18
2022-11-15T08:23:16.287Z,8.21
2022-11-15T08:26:19.153Z,8.24
2022-11-15T08:29:22.022Z,8.31
2022-11-15T08:32:25.409Z,8.36
2022-11-15T08:35:30.433Z,8.40
2022-11-15T08:38:34.303Z,8.42
2022-11-15T08:41:39.049Z,8.51
2022-11-15T08:44:41.838Z,8.58
2022-11-15T08:48:12.338Z,8.60
2022-11-15T08:51:15.202Z,8.62
2022-11-15T08:54:18.273Z,8.66
2022-11-15T08:57:21.100Z,8.73
2022-11-15T09:00:23.996Z,8.81
2022-11-15T09:03:26.965Z,8.86
2022-11-15T09:06:29.949Z,8.89
2022-11-15T09:09:32.783Z,8.93
2022-11-15T09:12:36.275Z,9.00
2022-11-15T09:15:39.384Z,9.07
2022-11-15T09:18:43.060Z,9.10
2022-11-15T09:21:46.270Z,9.16
2022-11-15T09:24:49.243Z,9.22
2022-11-15T09:27:52.147Z,9.29
2022-11-15T09:31:03.243Z,9.35
2022-11-15T09:34:06.137Z,9.42
2022-11-15T09:37:09.055Z,9.46
2022-11-15T09:40:17.702Z,9.56
2022-11-15T09:43:44.351Z,9.64
2022-11-15T09:47:05.668Z,9.70
2022-11-15T09:50:16.216Z,9.77
2022-11-15T09:54:24.110Z,9.80
2022-11-15T09:57:16.310Z,9.87
2022-11-15T10:00:50.554Z,9.93
2022-11-15T10:03:59.096Z,10.01
2022-11-15T10:07:14.533Z,10.08
2022-11-15T10:10:31.289Z,10.16
2022-11-15T10:13:38.344Z,10.23
2022-11-15T10:16:48.452Z,10.29
2022-11-15T10:20:13.712Z,10.37
2022-11-15T10:23:20.244Z,10.47
2022-11-15T10:26:25.205Z,10.56
2022-11-15T10:29:28.086Z,10.64
2022-11-15T10:32:34.104Z,10.70
2022-11-15T10:35:37.184Z,10.76
2022-11-15T10:38:49.164Z,10.85
2022-11-15T10:41:52.466Z,10.96
2022-11-15T10:44:55.743Z,11.06
2022-11-15T10:48:14.706Z,11.14
2022-11-15T10:51:31.089Z,11.21
2022-11-15T10:54:42.867Z,11.28
2022-11-15T10:57:55.610Z,11.37
2022-11-15T11:01:10.634Z,11.47
2022-11-15T11:04:15.259Z,11.55
2022-11-15T11:07:25.418Z,11.62
2022-11-15T11:10:50.496Z,11.71
2022-11-15T11:13:51.848Z,11.81
2022-11-15T11:17:34.037Z,11.91
2022-11-15T11:20:46.143Z,12.00
2022-11-15T11:24:17.050Z,12.08
2022-11-15T11:27:29.222Z,12.14
2022-11-15T11:30:47.009Z,12.23
2022-11-15T11:34:12.897Z,12.30
2022-11-15T11:37:30.123Z,12.35
2022-11-15T11:40:46.551Z,12.44
2022-11-15T11:44:34.991Z,12.55
2022-11-15T11:47:48.722Z,12.68
2022-11-15T11:50:59.483Z,12.75
2022-11-15T11:54:16.046Z,12.88
2022-11-15T11:57:50.796Z,12.99
2022-11-15T12:00:59.723Z,13.10
2022-11-15T12:04:26.102Z,13.19
2022-11-15T12:07:38.186Z,13.28
2022-11-15T12:10:46.647Z,13.36
2022-11-15T12:13:54.927Z,13.44
2022-11-15T12:16:59.803Z,13.53
2022-11-15T12:20:16.676Z,13.60
2022-11-15T12:23:27.823Z,13.66
2022-11-15T12:26:44.248Z,13.71
2022-11-15T12:29:53.373Z,13.81
2022-11-15T12:32:58.373Z,13.92
2022-11-15T12:36:05.552Z,14.03
2022-11-15T12:39:13.266Z,14.11
2022-11-15T12:42:22.495Z,14.21
2022-11-15T12:45:32.733Z,14.29
2022-11-15T12:48:35.489Z,14.39
2022-11-15T12:51:44.389Z,14.46
2022-11-15T12:54:55.161Z,14.54
2022-11-15T12:58:44.314Z,14.59
2022-11-15T13:01:48.924Z,14.65
2022-11-15T13:04:55.143Z,14.61
2022-11-15T13:07:59.423Z,14.49
2022-11-15T13:11:40.732Z,14.33
2022-11-15T13:14:48.515Z,14.11
2022-11-15T13:17:56.701Z,13.98
2022-11-15T13:21:02.633Z,13.85
2022-11-15T13:24:24.658Z,13.74
2022-11-15T13:27:28.007Z,13.62
2022-11-15T13:30:32.444Z,13.51
2022-11-15T13:33:37.815Z,13.42
2022-11-15T13:36:40.855Z,13.36
2022-11-15T13:39:45.076Z,13.30
2022-11-15T13:42:48.023Z,13.25
2022-11-15T13:46:21.077Z,13.19
2022-11-15T13:49:31.754Z,13.10
2022-11-15T13:57:44.016Z,13.00
2022-11-15T14:00:48.387Z,12.98
2022-11-15T14:04:02.191Z,12.92
2022-11-15T14:07:05.361Z,12.85
2022-11-15T14:10:29.827Z,12.80
2022-11-15T14:13:33.009Z,12.75
2022-11-15T14:16:46.539Z,12.69
2022-11-15T14:19:50.196Z,12.68
2022-11-15T14:22:58.086Z,12.61
2022-11-15T14:26:01.130Z,12.59
2022-11-15T14:29:36.811Z,12.56
2022-11-15T14:32:51.113Z,12.52
2022-11-15T14:35:57.163Z,12.48
2022-11-15T14:39:00.051Z,12.43
2022-11-15T14:42:02.875Z,12.36
2022-11-15T14:45:15.934Z,12.30
2022-11-15T14:48:18.805Z,12.25
2022-11-15T14:51:21.685Z,12.23
2022-11-15T14:54:24.657Z,12.20
2022-11-15T14:57:29.073Z,12.14
2022-11-15T15:00:35.257Z,12.09
2022-11-15T15:03:38.434Z,12.03
2022-11-15T15:06:41.349Z,12.01
2022-11-15T15:09:45.107Z,11.97
2022-11-15T15:12:48.917Z,11.93
2022-11-15T15:15:53.791Z,11.88
2022-11-15T15:18:56.643Z,11.83
2022-11-15T15:21:59.466Z,11.78
2022-11-15T15:25:02.384Z,11.75
2022-11-15T15:28:05.432Z,11.72
2022-11-15T15:31:12.406Z,11.67
2022-11-15T15:34:16.756Z,11.58
2022-11-15T15:37:27.375Z,11.55
2022-11-15T15:40:33.969Z,11.49
2022-11-15T15:43:36.837Z,11.44
2022-11-15T15:46:39.943Z,11.40
2022-11-15T15:49:42.990Z,11.36
2022-11-15T15:52:45.993Z,11.34
2022-11-15T15:55:49.050Z,11.29
2022-11-15T15:58:54.308Z,11.27
2022-11-15T16:01:57.424Z,11.26
2022-11-15T16:05:00.504Z,11.25
2022-11-15T16:08:03.635Z,11.17
2022-11-15T16:11:07.505Z,11.22
2022-11-15T16:14:10.491Z,11.18
2022-11-15T16:17:19.676Z,11.16
2022-11-15T16:20:31.699Z,11.13
2022-11-15T16:23:34.915Z,11.11
2022-11-15T16:26:39.845Z,11.10
2022-11-15T16:29:42.880Z,11.05
2022-11-15T16:32:46.484Z,11.02
2022-11-15T16:35:49.542Z,10.94
2022-11-15T16:38:54.352Z,10.97
2022-11-15T16:42:02.332Z,11.01
2022-11-15T16:45:06.136Z,10.99
2022-11-15T16:48:25.534Z,10.99
2022-11-15T16:51:29.162Z,10.95
2022-11-15T16:54:32.410Z,10.93
2022-11-15T16:57:36.188Z,10.94
2022-11-15T17:00:39.920Z,10.93
2022-11-15T17:03:44.583Z,10.91
2022-11-15T17:07:17.546Z,10.87
2022-11-15T17:10:25.700Z,10.83
2022-11-15T17:13:29.200Z,10.81
2022-11-15T17:16:32.183Z,10.79
2022-11-15T17:19:35.096Z,10.74
2022-11-15T17:22:37.975Z,10.74
2022-11-15T17:25:41.618Z,10.73
2022-11-15T17:28:44.498Z,10.74
2022-11-15T17:31:47.357Z,10.73
2022-11-15T17:34:50.212Z,10.72
2022-11-15T17:37:53.379Z,10.68
2022-11-15T17:41:05.453Z,10.64
2022-11-15T17:44:08.300Z,10.60
2022-11-15T17:47:11.164Z,10.56
2022-11-15T17:50:14.530Z,10.49
2022-11-15T17:53:18.049Z,10.41
2022-11-15T17:56:27.191Z,10.33
2022-11-15T17:59:39.680Z,10.17
2022-11-15T18:02:42.931Z,10.19
2022-11-15T18:05:46.219Z,10.15
2022-11-15T18:09:00.399Z,10.08
2022-11-15T18:12:07.375Z,10.15
2022-11-15T18:15:14.120Z,10.13
2022-11-15T18:18:20.922Z,10.08
2022-11-15T18:21:36.328Z,10.06
2022-11-15T18:24:52.305Z,10.06
2022-11-15T18:27:59.894Z,10.03
2022-11-15T18:31:26.030Z,9.98
2022-11-15T18:35:01.579Z,9.94
2022-11-15T18:38:12.451Z,9.92
2022-11-15T20:07:06.869Z,11.24
2022-11-15T20:10:19.574Z,10.61
2022-11-15T20:13:28.180Z,10.41
2022-11-15T20:16:42.104Z,10.19
2022-11-15T20:19:51.749Z,10.06
2022-11-15T20:27:10.228Z,9.70
2022-11-15T20:31:00.821Z,9.65
2022-11-15T20:34:39.798Z,9.49
2022-11-15T20:37:58.822Z,9.27
2022-11-15T20:41:04.111Z,9.24
2022-11-15T20:44:06.989Z,9.19
2022-11-15T20:47:09.825Z,9.15
2022-11-15T20:50:40.608Z,9.10
2022-11-15T20:53:38.178Z,9.04
2022-11-15T20:56:41.080Z,9.03
2022-11-15T20:59:47.706Z,9.02
2022-11-15T21:02:53.477Z,9.01
2022-11-15T21:05:56.417Z,8.96
2022-11-15T21:09:20.986Z,8.90
2022-11-15T21:12:24.032Z,8.75
2022-11-15T21:15:26.858Z,8.62
2022-11-15T21:18:35.635Z,8.54
2022-11-15T21:21:40.536Z,8.51
2022-11-15T21:24:43.662Z,8.50
2022-11-15T21:28:01.913Z,8.46
2022-11-15T21:31:10.000Z,8.44
2022-11-15T21:34:15.530Z,8.44
2022-11-15T21:37:18.339Z,8.42
2022-11-15T21:40:25.664Z,8.39
2022-11-15T21:43:28.601Z,8.33
2022-11-15T21:46:32.363Z,8.19
2022-11-15T21:49:38.770Z,8.11
2022-11-15T21:52:47.261Z,8.13
2022-11-15T21:55:50.225Z,8.16
2022-11-15T21:58:54.258Z,7.98
2022-11-15T22:02:16.174Z,7.99
2022-11-15T22:05:19.994Z,7.95
2022-11-15T22:08:24.130Z,7.95
2022-11-15T22:11:29.303Z,7.94
2022-11-15T22:14:32.286Z,7.92
2022-11-15T22:17:54.052Z,7.92
2022-11-15T22:20:58.394Z,7.89
2022-11-15T22:24:04.104Z,7.83
2022-11-15T22:27:07.297Z,7.83
2022-11-15T22:30:11.277Z,7.85
2022-11-15T22:33:15.398Z,7.81
2022-11-15T22:36:18.533Z,7.78
2022-11-15T22:39:21.432Z,7.72
2022-11-15T22:42:24.432Z,7.68
2022-11-15T22:45:27.505Z,7.67
2022-11-15T22:48:34.659Z,7.66
2022-11-15T22:51:40.694Z,7.65
2022-11-15T22:54:44.218Z,7.63
2022-11-15T22:57:47.174Z,7.59
2022-11-15T23:00:57.544Z,7.52
2022-11-15T23:04:01.450Z,7.51
2022-11-15T23:07:04.668Z,7.50
2022-11-15T23:10:26.921Z,7.56
2022-11-15T23:13:32.260Z,7.48
2022-11-15T23:16:35.228Z,7.40
2022-11-15T23:19:38.138Z,7.34
2022-11-15T23:22:47.435Z,7.35
2022-11-15T23:25:59.125Z,7.35
2022-11-15T23:29:02.136Z,7.38
2022-11-15T23:32:49.236Z,7.42
2022-11-15T23:35:55.697Z,7.42
2022-11-15T23:38:58.771Z,7.43
2022-11-15T23:42:08.576Z,7.42
2022-11-15T23:45:12.298Z,7.40
2022-11-15T23:48:15.254Z,7.38
2022-11-15T23:51:18.219Z,7.37
2022-11-15T23:54:25.106Z,7.37
2022-11-15T23:57:29.147Z,7.30
